Hauptseite
METAR-TAF:

METAR-TAF

Flughäfen :

Finkenwerder, Deutschland

Flugplatz Hamburg-Finkenwerder

Breite: 53-32N, Länge: 009-50E, Höhe: 5 m

Beobachtung

Neuester Wetterbericht von vor 36 Minuten, um 08:20 UTC
Wind 8 kt aus Süd, variierte zwischen Süd/Südost und Südwest
Temperatur 10°C
Luftfeuchtigkeit 76%
Luftdruck 1002 hPa
Sichtweite 10 km oder mehr
Durchbrochene Bewölkung in der Höhe von 4800 ft

METAR: EDHI 270820Z 19008KT 150V220 9999 BKN048 10/06 Q1002

Zeit: 09:56 (08:56 UTC)

Prognose

Neuester Wetterbericht von vor 56 Minuten, um 08:00 UTC
Gültige Prognose vom 27 um 09 UTC bis 27 um 18 UTC
Wind 12 kt aus Süd/Südwest
Sichtweite 10 km oder mehr
Durchbrochene Bewölkung in der Höhe von 4000 ft
Zeitweise
vom 27 um 11 UTC bis 27 um 15 UTC
Wind 15 kt aus Süd/Südwest, Böen bis zu 25 kt

TAF: EDHI 270800Z 2709/2718 21012KT 9999 BKN040 TEMPO 2711/2715 20015G25KT

Wetterbeobachtungen und Prognosen von mehr als 4000 Flughäfen (METAR und TAF Bericht).

Die verfügbaren Stationen werden durch gelbe und rote Markierungen auf der Karte dargestellt.

Führen Sie die Maus auf sie, um den Namen der Station zu sehen.

Darauf klicken, um die Beobachtung von Wetterbeobachtungen und Prognosen zu sehen.

Um die Karte zu ändern : klicken Sie auf den grünen Tasten mit einem schwarzen Kreuz Zum Vergrößern, auf den grünen Button mit einem Gedankenstrich zu verkleinern, oder auf die grünen Pfeile für benachbarte Karten.


METAR-TAF: